createdAt,value
2022-12-19T00:00:43.456Z,30.30
2022-12-19T00:03:11.496Z,30.80
2022-12-19T00:05:40.719Z,31.80
2022-12-19T00:08:17.813Z,25.73
2022-12-19T00:10:56.350Z,27.13
2022-12-19T00:13:25.436Z,20.73
2022-12-19T00:15:53.502Z,25.10
2022-12-19T00:18:21.419Z,28.27
2022-12-19T00:20:58.388Z,27.10
2022-12-19T00:23:30.459Z,28.90
2022-12-19T00:26:10.083Z,24.50
2022-12-19T00:28:38.003Z,25.90
2022-12-19T00:31:06.371Z,28.57
2022-12-19T00:33:34.915Z,27.80
2022-12-19T00:36:10.513Z,20.70
2022-12-19T00:38:39.977Z,25.87
2022-12-19T00:41:12.552Z,28.43
2022-12-19T00:43:40.895Z,27.83
2022-12-19T00:46:12.539Z,28.30
2022-12-19T00:48:42.185Z,26.23
2022-12-19T00:51:13.563Z,28.87
2022-12-19T00:53:44.639Z,33.80
2022-12-19T00:56:17.164Z,26.03
2022-12-19T00:58:47.392Z,28.27
2022-12-19T01:01:19.699Z,21.03
2022-12-19T01:04:19.159Z,27.30
2022-12-19T01:06:36.433Z,29.40
2022-12-19T01:09:07.983Z,30.30
2022-12-19T01:11:55.766Z,26.37
2022-12-19T01:14:23.682Z,27.30
2022-12-19T01:16:52.243Z,19.93
2022-12-19T01:19:20.705Z,30.43
2022-12-19T01:21:48.751Z,30.90
2022-12-19T01:24:18.919Z,27.33
2022-12-19T01:26:51.929Z,25.53
2022-12-19T01:29:19.704Z,32.37
2022-12-19T01:31:48.877Z,25.63
2022-12-19T01:34:16.727Z,28.37
2022-12-19T01:36:44.621Z,29.47
2022-12-19T01:39:12.393Z,24.03
2022-12-19T01:41:40.250Z,29.43
2022-12-19T01:44:10.121Z,34.23
2022-12-19T01:46:43.692Z,28.93
2022-12-19T01:49:25.029Z,29.77
2022-12-19T01:51:56.826Z,28.10
2022-12-19T01:54:35.826Z,29.67
2022-12-19T01:57:11.215Z,32.67
2022-12-19T01:59:46.037Z,28.25
2022-12-19T02:02:23.086Z,25.33
2022-12-19T02:04:51.050Z,29.13
2022-12-19T02:07:24.018Z,30.87
2022-12-19T02:09:57.777Z,28.27
2022-12-19T02:12:39.977Z,27.53
2022-12-19T02:15:14.989Z,35.17
2022-12-19T02:18:08.349Z,30.37
2022-12-19T02:21:14.847Z,30.40
2022-12-19T02:24:14.308Z,31.87
2022-12-19T02:27:25.511Z,33.73
2022-12-19T02:30:12.725Z,30.17
2022-12-19T02:32:59.279Z,28.87
2022-12-19T02:35:35.292Z,33.57
2022-12-19T02:38:16.005Z,29.60
2022-12-19T02:40:55.640Z,23.57
2022-12-19T02:43:31.038Z,33.10
2022-12-19T02:46:03.668Z,23.43
2022-12-19T02:48:35.297Z,23.00
2022-12-19T02:51:05.691Z,25.27
2022-12-19T02:53:36.365Z,27.80
2022-12-19T02:56:38.134Z,26.67
2022-12-19T02:59:24.925Z,34.33
2022-12-19T03:02:04.140Z,32.47
2022-12-19T03:04:48.010Z,30.03
2022-12-19T03:07:29.250Z,31.17
2022-12-19T03:10:12.793Z,31.10
2022-12-19T03:12:53.516Z,28.38
2022-12-19T03:15:23.774Z,32.27
2022-12-19T03:17:56.903Z,27.90
2022-12-19T03:20:40.269Z,29.43
2022-12-19T03:23:08.367Z,29.80
2022-12-19T03:25:36.245Z,31.80
2022-12-19T03:28:11.874Z,29.37
2022-12-19T03:30:44.611Z,28.15
2022-12-19T03:33:17.300Z,28.40
2022-12-19T03:35:48.796Z,25.43
2022-12-19T03:38:20.693Z,28.17
2022-12-19T03:40:49.985Z,29.30
2022-12-19T03:43:22.044Z,27.27
2022-12-19T03:46:02.040Z,25.70
2022-12-19T03:48:40.969Z,18.90
2022-12-19T03:51:26.683Z,28.67
2022-12-19T03:54:01.781Z,29.30
2022-12-19T03:56:40.049Z,28.70
2022-12-19T03:59:17.055Z,28.47
2022-12-19T04:01:46.837Z,26.97
2022-12-19T04:04:16.348Z,37.83
2022-12-19T04:06:47.028Z,31.90
2022-12-19T04:09:22.554Z,30.07
2022-12-19T04:11:58.752Z,31.92
2022-12-19T04:14:31.915Z,31.63
2022-12-19T04:17:15.786Z,29.23
2022-12-19T04:19:51.119Z,28.50
2022-12-19T04:22:29.256Z,29.48
2022-12-19T04:25:00.607Z,30.50
2022-12-19T04:27:35.679Z,29.77
2022-12-19T04:30:09.688Z,30.20
2022-12-19T04:32:40.471Z,30.10
2022-12-19T04:35:09.495Z,29.50
2022-12-19T04:37:38.867Z,27.83
2022-12-19T04:40:08.920Z,29.03
2022-12-19T04:42:37.072Z,31.23
2022-12-19T04:45:07.073Z,30.20
2022-12-19T04:47:35.512Z,31.83
2022-12-19T04:50:03.697Z,32.93
2022-12-19T04:52:31.520Z,33.87
2022-12-19T04:55:00.622Z,30.67
2022-12-19T04:57:30.026Z,33.37
2022-12-19T04:59:58.286Z,33.40
2022-12-19T05:02:26.941Z,32.07
2022-12-19T05:04:55.173Z,31.00
2022-12-19T05:07:23.074Z,37.60
2022-12-19T05:09:50.863Z,31.77
2022-12-19T05:12:20.044Z,38.00
2022-12-19T05:14:48.304Z,37.97
2022-12-19T05:17:16.283Z,37.60
2022-12-19T05:19:44.108Z,42.83
2022-12-19T05:22:11.847Z,35.63
2022-12-19T05:24:39.541Z,37.73
2022-12-19T05:27:07.579Z,37.77
2022-12-19T05:29:36.617Z,40.70
2022-12-19T05:32:04.546Z,37.83
2022-12-19T05:34:32.428Z,40.77
2022-12-19T05:37:02.920Z,36.83
2022-12-19T05:39:30.741Z,38.43
2022-12-19T05:41:58.542Z,36.00
2022-12-19T05:44:27.589Z,37.70
2022-12-19T05:46:56.927Z,38.53
2022-12-19T05:49:24.773Z,36.27
2022-12-19T05:51:52.905Z,39.80
2022-12-19T05:54:20.888Z,42.60
2022-12-19T05:56:48.620Z,38.33
2022-12-19T05:59:16.498Z,38.63
2022-12-19T06:01:44.409Z,41.50
2022-12-19T06:04:13.680Z,43.07
2022-12-19T06:06:41.455Z,42.87
2022-12-19T06:09:09.212Z,42.07
2022-12-19T06:11:36.976Z,43.40
2022-12-19T06:14:08.057Z,41.00
2022-12-19T06:16:35.945Z,44.67
2022-12-19T06:19:03.969Z,43.47
2022-12-19T06:21:33.145Z,41.47
2022-12-19T06:24:01.151Z,49.47
2022-12-19T06:26:29.424Z,44.50
2022-12-19T06:28:57.298Z,42.93
2022-12-19T06:31:25.816Z,45.00
2022-12-19T06:33:55.411Z,40.40
2022-12-19T06:36:26.102Z,48.43
2022-12-19T06:39:00.159Z,43.47
2022-12-19T06:41:46.943Z,46.03
2022-12-19T06:44:17.249Z,44.93
2022-12-19T06:46:45.145Z,48.27
2022-12-19T06:49:13.132Z,49.00
2022-12-19T06:51:41.320Z,46.23
2022-12-19T06:54:11.465Z,47.17
2022-12-19T06:56:41.969Z,47.57
2022-12-19T06:59:14.392Z,46.80
2022-12-19T07:01:59.721Z,44.90
2022-12-19T07:04:32.521Z,46.50
2022-12-19T07:07:01.317Z,45.93
2022-12-19T07:09:31.719Z,47.93
2022-12-19T07:12:00.901Z,45.37
2022-12-19T07:14:28.628Z,43.83
2022-12-19T07:17:00.863Z,44.27
2022-12-19T07:19:31.367Z,44.07
2022-12-19T07:22:02.146Z,43.57
2022-12-19T07:24:32.270Z,43.07
2022-12-19T07:27:00.193Z,43.40
2022-12-19T07:29:28.080Z,39.57
2022-12-19T07:31:55.978Z,44.87
2022-12-19T07:34:23.964Z,42.57
2022-12-19T07:36:51.866Z,40.33
2022-12-19T07:39:19.687Z,42.47
2022-12-19T07:41:48.777Z,40.43
2022-12-19T07:44:28.124Z,40.20
2022-12-19T07:46:56.236Z,42.87
2022-12-19T07:49:24.358Z,43.33
2022-12-19T07:51:52.132Z,41.97
2022-12-19T07:54:19.961Z,44.67
2022-12-19T07:56:49.724Z,40.33
2022-12-19T07:59:18.125Z,39.43
2022-12-19T08:01:46.743Z,44.63
2022-12-19T08:04:14.893Z,40.70
2022-12-19T08:06:42.687Z,44.27
2022-12-19T08:09:10.447Z,45.17
2022-12-19T08:11:38.910Z,44.90
2022-12-19T08:14:08.034Z,43.37
2022-12-19T08:17:10.921Z,44.80
2022-12-19T08:19:27.813Z,42.47
2022-12-19T08:21:55.958Z,42.10
2022-12-19T08:24:24.684Z,44.00
2022-12-19T08:26:52.748Z,38.80
2022-12-19T08:29:22.871Z,41.33
2022-12-19T08:31:51.180Z,40.93
2022-12-19T08:34:19.137Z,43.20
2022-12-19T08:36:47.073Z,40.20
2022-12-19T08:39:14.952Z,39.17
2022-12-19T08:41:42.666Z,39.67
2022-12-19T08:44:13.495Z,40.33
2022-12-19T08:46:49.440Z,41.27
2022-12-19T08:49:18.782Z,40.83
2022-12-19T08:51:47.118Z,40.53
2022-12-19T08:54:15.208Z,38.63
2022-12-19T08:56:46.299Z,35.57
2022-12-19T08:59:18.716Z,35.17
2022-12-19T09:01:56.333Z,33.20
2022-12-19T09:05:13.566Z,34.50
2022-12-19T09:07:15.286Z,36.23
2022-12-19T09:09:44.083Z,32.60
2022-12-19T09:12:13.603Z,33.93
2022-12-19T09:14:41.555Z,34.73
2022-12-19T09:17:10.855Z,31.90
2022-12-19T09:19:38.637Z,31.57
2022-12-19T09:22:07.738Z,35.60
2022-12-19T09:24:35.561Z,34.90
2022-12-19T09:27:03.471Z,33.70
2022-12-19T09:29:35.362Z,31.27
2022-12-19T09:32:03.662Z,30.27
2022-12-19T09:34:38.317Z,30.80
2022-12-19T09:37:08.379Z,29.65
2022-12-19T09:39:36.604Z,29.57
2022-12-19T09:42:27.666Z,30.20
2022-12-19T09:45:19.505Z,28.43
2022-12-19T09:48:01.859Z,28.77
2022-12-19T09:50:47.897Z,29.70
2022-12-19T09:53:25.628Z,27.55
2022-12-19T09:55:54.812Z,28.00
2022-12-19T09:58:41.006Z,29.10
2022-12-19T10:01:20.358Z,28.90
2022-12-19T10:04:00.991Z,28.63
2022-12-19T10:07:15.901Z,26.97
2022-12-19T10:11:18.591Z,26.57
2022-12-19T10:12:53.004Z,28.03
2022-12-19T10:15:35.774Z,28.33
2022-12-19T10:18:31.805Z,27.50
2022-12-19T10:21:07.608Z,27.35
2022-12-19T10:26:39.915Z,26.07
2022-12-19T10:29:34.090Z,26.67
2022-12-19T10:32:13.890Z,26.23
2022-12-19T10:34:44.758Z,26.03
2022-12-19T10:37:25.351Z,26.97
2022-12-19T10:40:20.018Z,26.53
2022-12-19T10:43:09.376Z,25.83
2022-12-19T10:45:47.052Z,24.87
2022-12-19T10:48:19.718Z,25.77
2022-12-19T10:50:50.734Z,24.70
2022-12-19T10:53:28.779Z,25.87
2022-12-19T10:56:13.018Z,23.97
2022-12-19T10:58:44.387Z,23.23
2022-12-19T11:01:17.630Z,23.33
2022-12-19T11:03:54.564Z,26.83
2022-12-19T11:06:57.083Z,22.73
2022-12-19T11:09:29.255Z,23.43
2022-12-19T11:15:38.004Z,22.80
2022-12-19T11:19:42.376Z,23.97
2022-12-19T11:23:31.368Z,21.80
2022-12-19T11:30:05.066Z,23.63
2022-12-19T11:30:41.365Z,22.70
2022-12-19T11:30:47.997Z,24.30
2022-12-19T11:32:41.551Z,19.90
2022-12-19T11:35:19.921Z,21.13
2022-12-19T11:37:55.864Z,21.40
2022-12-19T11:40:34.076Z,24.13
2022-12-19T11:46:16.231Z,23.93
2022-12-19T11:48:53.712Z,25.63
2022-12-19T11:51:32.319Z,27.70
2022-12-19T11:54:13.904Z,22.93
2022-12-19T11:56:41.921Z,22.03
2022-12-19T11:59:18.308Z,22.17
2022-12-19T12:02:09.758Z,24.20
2022-12-19T12:05:08.624Z,21.47
2022-12-19T12:08:37.099Z,20.30
2022-12-19T12:15:23.545Z,19.97
2022-12-19T12:20:55.070Z,19.63
2022-12-19T12:29:35.381Z,19.20
2022-12-19T12:31:13.627Z,19.00
2022-12-19T12:31:41.877Z,18.03
2022-12-19T12:32:00.733Z,18.73
2022-12-19T12:32:03.001Z,16.43
2022-12-19T12:35:50.036Z,16.00
2022-12-19T12:38:43.277Z,16.90
2022-12-19T12:41:46.269Z,16.63
2022-12-19T12:44:15.524Z,18.27
2022-12-19T12:46:49.293Z,17.50
2022-12-19T12:49:35.966Z,18.77
2022-12-19T12:52:12.893Z,18.03
2022-12-19T12:54:45.354Z,17.70
2022-12-19T12:57:33.890Z,18.83
2022-12-19T13:00:24.695Z,18.60
2022-12-19T13:03:02.560Z,18.73
2022-12-19T13:05:53.385Z,17.67
2022-12-19T13:08:34.314Z,18.40
2022-12-19T13:11:06.780Z,16.37
2022-12-19T13:13:53.697Z,16.80
2022-12-19T13:16:54.276Z,18.50
2022-12-19T13:19:28.884Z,17.27
2022-12-19T13:22:23.079Z,15.90
2022-12-19T13:24:54.746Z,15.90
2022-12-19T13:27:39.220Z,15.43
2022-12-19T13:30:20.169Z,14.37
2022-12-19T13:33:10.095Z,14.10
2022-12-19T13:37:05.286Z,14.43
2022-12-19T13:39:58.052Z,14.87
2022-12-19T13:41:58.310Z,13.40
2022-12-19T13:44:27.635Z,13.43
2022-12-19T13:46:56.569Z,14.60
2022-12-19T13:49:34.768Z,14.17
2022-12-19T13:52:06.888Z,14.17
2022-12-19T13:54:46.734Z,14.93
2022-12-19T13:57:24.802Z,13.87
2022-12-19T14:00:00.031Z,14.97
2022-12-19T14:02:44.080Z,15.10
2022-12-19T14:05:34.065Z,16.00
2022-12-19T14:08:21.473Z,14.77
2022-12-19T14:11:29.020Z,15.00
2022-12-19T14:14:16.535Z,13.83
2022-12-19T14:16:48.504Z,13.80
2022-12-19T14:19:21.794Z,13.70
2022-12-19T14:22:11.804Z,12.60
2022-12-19T14:24:53.078Z,12.00
2022-12-19T14:28:24.935Z,10.80
2022-12-19T14:30:30.060Z,12.10
2022-12-19T14:33:45.357Z,11.60
2022-12-19T14:36:08.442Z,11.23
2022-12-19T14:39:24.217Z,11.00
2022-12-19T14:42:03.000Z,11.83
2022-12-19T14:52:26.128Z,10.73
2022-12-19T14:54:05.507Z,10.23
2022-12-19T14:54:06.895Z,10.57
2022-12-19T14:55:08.281Z,11.03
2022-12-19T14:57:00.310Z,10.17
2022-12-19T14:59:35.430Z,10.27
2022-12-19T15:02:28.167Z,10.50
2022-12-19T15:05:07.607Z,10.20
2022-12-19T15:07:40.991Z,10.33
2022-12-19T15:11:10.902Z,9.90
2022-12-19T15:16:26.747Z,9.67
2022-12-19T15:18:58.545Z,10.07
2022-12-19T15:21:29.832Z,9.87
2022-12-19T15:23:58.071Z,9.80
2022-12-19T15:26:33.209Z,10.27
2022-12-19T15:29:02.893Z,9.93
2022-12-19T15:31:36.048Z,9.50
2022-12-19T15:34:35.025Z,10.23
2022-12-19T15:37:05.047Z,9.40
2022-12-19T15:39:32.880Z,9.53
2022-12-19T15:42:02.905Z,9.50
2022-12-19T15:44:37.828Z,10.27
2022-12-19T15:47:15.660Z,9.88
2022-12-19T15:49:43.617Z,9.33
2022-12-19T15:52:17.314Z,9.67
2022-12-19T15:54:50.075Z,10.17
2022-12-19T15:57:32.494Z,10.47
2022-12-19T16:00:09.015Z,10.43
2022-12-19T16:03:21.052Z,10.13
2022-12-19T16:05:29.505Z,9.10
2022-12-19T16:07:58.822Z,9.40
2022-12-19T16:10:29.472Z,9.23
2022-12-19T16:12:58.845Z,9.03
2022-12-19T16:15:33.696Z,8.73
2022-12-19T16:18:03.789Z,9.07
2022-12-19T16:20:39.330Z,8.00
2022-12-19T16:23:08.204Z,9.25
2022-12-19T16:25:41.212Z,8.57
2022-12-19T16:28:18.349Z,8.50
2022-12-19T16:30:47.396Z,7.97
2022-12-19T16:33:22.144Z,9.00
2022-12-19T16:36:07.650Z,8.25
2022-12-19T16:38:36.548Z,7.95
2022-12-19T16:41:04.618Z,8.17
2022-12-19T16:43:38.502Z,7.43
2022-12-19T16:46:08.595Z,8.13
2022-12-19T16:48:36.455Z,7.37
2022-12-19T16:51:04.828Z,7.90
2022-12-19T16:53:33.171Z,7.77
2022-12-19T16:56:02.437Z,8.43
2022-12-19T16:58:30.311Z,8.20
2022-12-19T17:00:59.602Z,7.73
2022-12-19T17:03:37.123Z,7.77
2022-12-19T17:06:05.039Z,7.43
2022-12-19T17:08:33.005Z,7.83
2022-12-19T17:11:00.794Z,7.90
2022-12-19T17:13:28.897Z,8.30
2022-12-19T17:16:55.354Z,7.97
2022-12-19T17:23:15.722Z,8.03
2022-12-19T17:25:44.714Z,8.40
2022-12-19T17:28:13.003Z,7.97
2022-12-19T17:30:43.958Z,7.70
2022-12-19T17:37:04.415Z,8.10
2022-12-19T17:39:34.523Z,8.20
2022-12-19T17:42:16.402Z,7.60
2022-12-19T17:44:44.280Z,7.70
2022-12-19T17:47:14.906Z,8.30
2022-12-19T17:49:43.431Z,7.90
2022-12-19T17:52:16.329Z,8.07
2022-12-19T17:54:44.367Z,8.10
2022-12-19T17:57:14.359Z,8.30
2022-12-19T17:59:42.616Z,7.83
2022-12-19T18:02:21.241Z,7.50
2022-12-19T18:04:50.679Z,8.07
2022-12-19T18:07:19.831Z,7.90
2022-12-19T18:09:47.769Z,7.43
2022-12-19T18:12:15.720Z,7.97
2022-12-19T18:14:43.688Z,7.70
2022-12-19T18:17:13.670Z,6.87
2022-12-19T18:19:41.741Z,7.30
2022-12-19T18:22:12.664Z,7.13
2022-12-19T18:24:45.518Z,7.10
2022-12-19T18:27:14.473Z,7.57
2022-12-19T18:29:42.884Z,7.10
2022-12-19T18:32:19.062Z,5.83
2022-12-19T18:34:47.129Z,6.47
2022-12-19T18:37:15.833Z,6.17
2022-12-19T18:39:44.877Z,5.90
2022-12-19T18:42:20.647Z,6.03
2022-12-19T18:44:48.605Z,5.70
2022-12-19T18:47:22.120Z,5.77
2022-12-19T18:49:51.854Z,5.40
2022-12-19T18:52:19.649Z,6.20
2022-12-19T18:54:48.917Z,5.40
2022-12-19T18:57:16.660Z,5.77
2022-12-19T18:59:44.424Z,5.40
2022-12-19T19:02:26.244Z,5.57
2022-12-19T19:04:55.691Z,5.40
2022-12-19T19:07:23.463Z,5.03
2022-12-19T19:09:52.602Z,5.30
2022-12-19T19:12:36.411Z,5.47
2022-12-19T19:15:05.534Z,5.27
2022-12-19T19:17:33.474Z,4.80
2022-12-19T19:20:02.625Z,4.87
2022-12-19T19:22:30.744Z,5.03
2022-12-19T19:24:59.864Z,5.30
2022-12-19T19:27:27.872Z,5.07
2022-12-19T19:29:55.626Z,5.23
2022-12-19T19:32:25.322Z,5.10
2022-12-19T19:34:55.503Z,5.23
2022-12-19T19:37:23.644Z,5.17
2022-12-19T19:39:51.457Z,5.40
2022-12-19T19:42:20.499Z,5.53
2022-12-19T19:44:48.263Z,5.10
2022-12-19T19:47:16.082Z,5.40
2022-12-19T19:49:44.043Z,5.20
2022-12-19T19:52:11.820Z,4.73
2022-12-19T19:54:39.674Z,5.27
2022-12-19T19:57:08.271Z,5.17
2022-12-19T19:59:38.013Z,5.37
2022-12-19T20:02:05.925Z,4.83
2022-12-19T20:04:34.445Z,4.73
2022-12-19T20:07:02.906Z,5.07
2022-12-19T20:09:31.302Z,5.07
2022-12-19T20:11:59.687Z,4.80
2022-12-19T20:14:27.774Z,4.47
2022-12-19T20:16:56.895Z,4.53
2022-12-19T20:19:25.041Z,4.30
2022-12-19T20:21:53.064Z,4.67
2022-12-19T20:24:20.913Z,4.40
2022-12-19T20:26:48.649Z,4.70
2022-12-19T20:29:16.592Z,4.80
2022-12-19T20:31:44.690Z,4.77
2022-12-19T20:34:13.764Z,4.60
2022-12-19T20:36:41.762Z,4.50
2022-12-19T20:39:09.874Z,4.47
2022-12-19T20:41:38.030Z,4.63
2022-12-19T20:44:05.879Z,4.10
2022-12-19T20:46:33.763Z,4.23
2022-12-19T20:49:01.632Z,4.83
2022-12-19T20:51:30.867Z,4.50
2022-12-19T20:53:58.713Z,4.23
2022-12-19T20:56:26.650Z,4.20
2022-12-19T20:58:54.803Z,4.70
2022-12-19T21:01:25.380Z,4.70
2022-12-19T21:03:53.705Z,4.23
2022-12-19T21:06:26.071Z,4.30
2022-12-19T21:08:56.975Z,4.83
2022-12-19T21:11:26.437Z,4.17
2022-12-19T21:13:54.522Z,4.17
2022-12-19T21:16:23.560Z,4.00
2022-12-19T21:18:52.029Z,4.40
2022-12-19T21:21:23.331Z,4.13
2022-12-19T21:23:51.933Z,4.23
2022-12-19T21:26:23.472Z,4.23
2022-12-19T21:28:52.544Z,4.20
2022-12-19T21:31:24.978Z,4.33
2022-12-19T21:33:55.386Z,3.87
2022-12-19T21:36:25.701Z,4.07
2022-12-19T21:38:57.089Z,4.33
2022-12-19T21:41:26.303Z,4.00
2022-12-19T21:43:56.383Z,4.30
2022-12-19T21:46:28.051Z,4.27
2022-12-19T21:48:57.717Z,4.00
2022-12-19T21:51:29.430Z,4.00
2022-12-19T21:54:00.833Z,4.47
2022-12-19T21:56:34.089Z,4.40
2022-12-19T21:59:05.051Z,4.20
2022-12-19T22:01:34.128Z,4.00
2022-12-19T22:04:06.577Z,5.10
2022-12-19T22:06:37.853Z,4.57
2022-12-19T22:09:11.951Z,4.27
2022-12-19T22:11:42.096Z,4.60
2022-12-19T22:14:12.698Z,4.40
2022-12-19T22:16:40.672Z,4.23
2022-12-19T22:19:10.805Z,4.67
2022-12-19T22:21:38.967Z,4.43
2022-12-19T22:24:10.633Z,4.30
2022-12-19T22:26:38.836Z,4.50
2022-12-19T22:29:11.505Z,4.70
2022-12-19T22:31:39.959Z,4.93
2022-12-19T22:34:12.192Z,4.63
2022-12-19T22:36:42.221Z,4.80
2022-12-19T22:39:14.003Z,4.70
2022-12-19T22:41:42.759Z,4.30
2022-12-19T22:44:18.456Z,4.70
2022-12-19T22:46:49.479Z,4.83
2022-12-19T22:49:17.807Z,4.67
2022-12-19T22:51:45.993Z,4.13
2022-12-19T22:54:14.078Z,4.63
2022-12-19T22:56:42.381Z,5.60
2022-12-19T22:59:13.232Z,4.50
2022-12-19T23:01:43.586Z,4.20
2022-12-19T23:04:15.002Z,4.60
2022-12-19T23:06:44.187Z,4.50
2022-12-19T23:09:17.963Z,4.40
2022-12-19T23:11:48.671Z,4.80
2022-12-19T23:14:20.405Z,4.50
2022-12-19T23:16:49.150Z,4.57
2022-12-19T23:19:18.373Z,4.20
2022-12-19T23:21:46.533Z,4.63
2022-12-19T23:24:14.992Z,4.83
2022-12-19T23:26:42.894Z,4.40
2022-12-19T23:29:13.768Z,4.30
2022-12-19T23:31:46.643Z,4.40
2022-12-19T23:34:15.573Z,4.53
2022-12-19T23:37:10.217Z,4.47
2022-12-19T23:39:31.063Z,4.67
2022-12-19T23:41:58.784Z,4.67
2022-12-19T23:44:27.409Z,4.70
2022-12-19T23:47:03.021Z,4.87
2022-12-19T23:49:32.723Z,5.03
2022-12-19T23:52:00.672Z,5.20
2022-12-19T23:54:28.563Z,4.80
2022-12-19T23:56:56.894Z,5.20
2022-12-19T23:59:24.763Z,4.70
